KPSC/PSC METAR and TAF weather

Enter ICAO airport designator
Station Type Date Time Source
KPSC METAR 2019/07/17 12:53 UTC NOAA

KPSC 171253Z 22008KT 10SM CLR 20/12 A2986 RMK AO2 SLP109 T02000117


Station Type Date Time Source
KPSC Decoded METAR 2019/07/17 12:53 UTC NOAA

TRI-CITIES AIRPORT, WA, United States (KPSC) 46-16N 119-07W 121M
Jul 17, 2019 - 08:53 AM EDT / 2019.07.17 1253 UTC
Wind: from the SW (220 degrees) at 9 MPH (8 KT):0
Visibility: 10 mile(s):0
Sky conditions: clear
Temperature: 68.0 F (20.0 C)
Dew Point: 53.1 F (11.7 C)
Relative Humidity: 58%
Pressure (altimeter): 29.86 in. Hg (1011 hPa)
ob: KPSC 171253Z 22008KT 10SM CLR 20/12 A2986 RMK AO2 SLP109 T02000117
cycle: 13

Station Type Date Time Source
KPSC TAF 2019/07/17 12:22 UTC NOAA

TAF KPSC 171120Z 1712/1812 VRB05KT P6SM FEW100 BKN200
FM171600 23014G22KT P6SM BKN100
FM172300 26016G24KT P6SM BKN080
FM180600 24010KT P6SM SCT080

Example: see airport list